createdAt,value
2018-03-31T00:00:08.464Z,7.52
2018-03-31T00:01:12.556Z,7.47
2018-03-31T00:02:16.618Z,7.46
2018-03-31T00:03:21.461Z,7.48
2018-03-31T00:04:25.519Z,7.48
2018-03-31T00:05:30.365Z,7.48
2018-03-31T00:06:35.219Z,7.49
2018-03-31T00:07:39.287Z,7.47
2018-03-31T00:08:44.123Z,7.48
2018-03-31T00:09:48.174Z,7.50
2018-03-31T00:10:52.235Z,7.55
2018-03-31T00:11:56.315Z,7.55
2018-03-31T00:13:00.396Z,7.50
2018-03-31T00:14:05.220Z,7.50
2018-03-31T00:15:10.054Z,7.53
2018-03-31T00:16:14.877Z,7.56
2018-03-31T00:17:19.734Z,7.56
2018-03-31T00:18:23.793Z,7.57
2018-03-31T00:19:28.624Z,7.59
2018-03-31T00:20:32.676Z,7.62
2018-03-31T00:21:36.732Z,7.63
2018-03-31T00:22:43.279Z,7.67
2018-03-31T00:23:48.115Z,7.63
2018-03-31T00:24:52.171Z,7.63
2018-03-31T00:25:57.441Z,7.66
2018-03-31T00:27:01.493Z,7.68
2018-03-31T00:28:05.596Z,7.63
2018-03-31T00:29:09.652Z,7.69
2018-03-31T00:30:13.711Z,7.72
2018-03-31T00:31:17.786Z,7.72
2018-03-31T00:32:21.846Z,7.75
2018-03-31T00:33:26.772Z,7.78
2018-03-31T00:34:31.609Z,7.74
2018-03-31T00:35:35.662Z,7.77
2018-03-31T00:36:39.749Z,7.79
2018-03-31T00:37:44.000Z,7.78
2018-03-31T00:38:48.094Z,7.82
2018-03-31T00:39:52.912Z,7.82
2018-03-31T00:40:57.746Z,7.87
2018-03-31T00:42:01.797Z,7.87
2018-03-31T00:43:05.862Z,7.88
2018-03-31T00:44:09.956Z,7.87
2018-03-31T00:45:14.019Z,7.87
2018-03-31T00:46:18.866Z,7.90
2018-03-31T00:47:22.944Z,7.92
2018-03-31T00:48:27.772Z,7.96
2018-03-31T00:49:32.620Z,7.90
2018-03-31T00:50:36.677Z,7.88
2018-03-31T00:51:40.740Z,7.87
2018-03-31T00:52:44.847Z,7.86
2018-03-31T00:53:48.932Z,7.84
2018-03-31T00:54:53.015Z,7.86
2018-03-31T00:55:57.846Z,7.93
2018-03-31T00:57:01.899Z,8.02
2018-03-31T00:58:05.954Z,8.00
2018-03-31T00:59:10.012Z,7.94
2018-03-31T01:00:14.090Z,7.98
2018-03-31T01:02:36.266Z,8.02
2018-03-31T01:03:41.106Z,7.99
2018-03-31T01:04:45.156Z,7.97
2018-03-31T01:05:49.220Z,7.93
2018-03-31T01:06:53.304Z,7.86
2018-03-31T01:07:57.368Z,7.85
2018-03-31T01:09:01.424Z,7.81
2018-03-31T01:10:05.515Z,7.78
2018-03-31T01:11:09.592Z,7.80
2018-03-31T01:12:14.419Z,7.79
2018-03-31T01:13:19.058Z,7.76
2018-03-31T01:14:23.385Z,7.78
2018-03-31T01:15:27.436Z,7.79
2018-03-31T01:16:32.299Z,7.79
2018-03-31T01:17:36.357Z,7.77
2018-03-31T01:18:40.420Z,7.73
2018-03-31T01:19:44.480Z,7.72
2018-03-31T01:20:49.308Z,7.74
2018-03-31T01:21:53.600Z,7.71
2018-03-31T01:22:58.426Z,7.71
2018-03-31T01:24:02.537Z,7.68
2018-03-31T01:25:07.353Z,7.65
2018-03-31T01:26:12.172Z,7.64
2018-03-31T01:27:16.278Z,7.59
2018-03-31T01:28:21.103Z,7.60
2018-03-31T01:29:25.159Z,7.61
2018-03-31T01:30:29.236Z,7.60
2018-03-31T01:31:33.289Z,7.62
2018-03-31T01:32:38.146Z,7.57
2018-03-31T01:33:42.188Z,7.61
2018-03-31T01:34:46.281Z,7.58
2018-03-31T01:35:50.339Z,7.63
2018-03-31T01:36:54.395Z,7.63
2018-03-31T01:37:58.479Z,7.64
2018-03-31T01:39:02.532Z,7.68
2018-03-31T01:40:06.652Z,7.73
2018-03-31T01:41:11.668Z,7.74
2018-03-31T01:42:15.718Z,7.78
2018-03-31T01:43:19.801Z,7.82
2018-03-31T01:44:23.870Z,7.87
2018-03-31T01:45:27.937Z,7.82
2018-03-31T01:46:32.768Z,7.84
2018-03-31T01:47:37.594Z,7.83
2018-03-31T01:48:42.449Z,7.91
2018-03-31T01:49:46.501Z,7.95
2018-03-31T01:50:50.567Z,7.91
2018-03-31T01:51:54.636Z,7.88
2018-03-31T01:52:58.696Z,7.91
2018-03-31T01:54:02.772Z,7.87
2018-03-31T01:55:06.833Z,7.87
2018-03-31T01:56:10.900Z,7.90
2018-03-31T01:57:14.965Z,7.88
2018-03-31T01:58:19.029Z,7.88
2018-03-31T01:59:23.881Z,7.85
2018-03-31T02:00:28.706Z,7.83
2018-03-31T02:01:32.761Z,7.82
2018-03-31T02:02:37.618Z,7.86
2018-03-31T02:03:41.685Z,7.82
2018-03-31T02:04:46.546Z,7.80
2018-03-31T02:05:50.604Z,7.85
2018-03-31T02:06:55.464Z,7.83
2018-03-31T02:07:59.525Z,7.86
2018-03-31T02:09:04.356Z,7.88
2018-03-31T02:10:09.188Z,7.85
2018-03-31T02:11:13.254Z,7.94
2018-03-31T02:12:18.081Z,8.00
2018-03-31T02:13:22.136Z,8.04
2018-03-31T02:14:26.196Z,8.07
2018-03-31T02:15:31.054Z,8.07
2018-03-31T02:16:35.118Z,8.05
2018-03-31T02:17:39.945Z,8.03
2018-03-31T02:18:44.016Z,7.97
2018-03-31T02:19:48.080Z,7.97
2018-03-31T02:20:52.163Z,7.97
2018-03-31T02:21:56.233Z,7.99
2018-03-31T02:23:00.317Z,7.99
2018-03-31T02:24:04.402Z,7.93
2018-03-31T02:25:08.463Z,7.95
2018-03-31T02:26:13.305Z,7.93
2018-03-31T02:27:17.372Z,7.96
2018-03-31T02:28:22.192Z,7.94
2018-03-31T02:29:26.790Z,7.88
2018-03-31T02:30:30.853Z,7.84
2018-03-31T02:31:34.938Z,7.76
2018-03-31T02:32:38.993Z,7.75
2018-03-31T02:33:43.057Z,7.77
2018-03-31T02:34:47.145Z,7.83
2018-03-31T02:35:51.208Z,7.81
2018-03-31T02:36:56.470Z,7.81
2018-03-31T02:38:00.529Z,7.77
2018-03-31T02:39:04.597Z,7.76
2018-03-31T02:40:08.660Z,7.67
2018-03-31T02:41:13.486Z,7.53
2018-03-31T02:42:18.395Z,7.51
2018-03-31T02:43:22.215Z,7.46
2018-03-31T02:44:26.292Z,7.43
2018-03-31T02:45:31.117Z,7.38
2018-03-31T02:46:35.935Z,7.33
2018-03-31T02:47:40.784Z,7.30
2018-03-31T02:48:44.845Z,7.27
2018-03-31T02:49:49.685Z,7.25
2018-03-31T02:50:54.513Z,7.24
2018-03-31T02:51:58.569Z,7.26
2018-03-31T02:53:02.642Z,7.23
2018-03-31T02:54:06.705Z,7.23
2018-03-31T02:55:11.516Z,7.25
2018-03-31T02:56:16.338Z,7.24
2018-03-31T02:57:21.160Z,7.28
2018-03-31T02:58:26.000Z,7.24
2018-03-31T02:59:30.054Z,7.29
2018-03-31T03:00:34.108Z,7.27
2018-03-31T03:01:38.168Z,7.31
2018-03-31T03:02:42.228Z,7.29
2018-03-31T03:03:46.321Z,7.29
2018-03-31T03:04:50.391Z,7.25
2018-03-31T03:05:55.212Z,7.24
2018-03-31T03:07:00.042Z,7.31
2018-03-31T03:08:04.873Z,7.30
2018-03-31T03:09:08.957Z,7.26
2018-03-31T03:10:13.999Z,7.26
2018-03-31T03:11:18.085Z,7.24
2018-03-31T03:12:22.913Z,7.32
2018-03-31T03:13:27.734Z,7.32
2018-03-31T03:14:31.817Z,7.35
2018-03-31T03:15:35.874Z,7.41
2018-03-31T03:16:39.942Z,7.40
2018-03-31T03:17:43.996Z,7.40
2018-03-31T03:18:48.056Z,7.37
2018-03-31T03:19:52.146Z,7.29
2018-03-31T03:20:56.225Z,7.17
2018-03-31T03:22:00.050Z,7.08
2018-03-31T03:23:04.112Z,6.95
2018-03-31T03:24:08.178Z,6.77
2018-03-31T03:25:12.264Z,6.58
2018-03-31T03:26:16.321Z,6.47
2018-03-31T03:27:20.390Z,6.36
2018-03-31T03:28:24.444Z,6.28
2018-03-31T03:29:29.280Z,6.21
2018-03-31T03:30:33.429Z,6.11
2018-03-31T03:31:37.485Z,6.02
2018-03-31T03:32:41.553Z,5.91
2018-03-31T03:33:45.612Z,5.75
2018-03-31T03:34:49.682Z,5.62
2018-03-31T03:35:54.017Z,5.59
2018-03-31T03:36:58.076Z,5.49
2018-03-31T03:38:02.131Z,5.52
2018-03-31T03:39:06.213Z,5.53
2018-03-31T03:40:10.284Z,5.52
2018-03-31T03:41:15.130Z,5.40
2018-03-31T03:42:19.190Z,5.39
2018-03-31T03:43:23.260Z,5.41
2018-03-31T03:44:27.398Z,5.39
2018-03-31T03:45:31.508Z,5.41
2018-03-31T03:46:35.605Z,5.39
2018-03-31T03:47:40.460Z,5.32
2018-03-31T03:48:45.453Z,5.31
2018-03-31T03:49:50.277Z,5.23
2018-03-31T03:50:55.120Z,5.28
2018-03-31T03:51:59.192Z,5.35
2018-03-31T03:53:04.029Z,5.34
2018-03-31T03:54:08.113Z,5.35
2018-03-31T03:55:12.163Z,5.35
2018-03-31T03:56:16.220Z,5.36
2018-03-31T03:57:21.075Z,5.36
2018-03-31T03:58:25.164Z,5.40
2018-03-31T03:59:29.244Z,5.41
2018-03-31T04:00:34.810Z,5.45
2018-03-31T04:01:38.872Z,5.40
2018-03-31T04:02:42.968Z,5.43
2018-03-31T04:03:47.035Z,5.50
2018-03-31T04:04:51.105Z,5.53
2018-03-31T04:05:55.936Z,5.57
2018-03-31T04:06:59.773Z,5.53
2018-03-31T04:08:03.632Z,5.55
2018-03-31T04:09:07.700Z,5.57
2018-03-31T04:10:12.532Z,5.57
2018-03-31T04:11:17.422Z,5.57
2018-03-31T04:12:21.494Z,5.56
2018-03-31T04:13:25.597Z,5.58
2018-03-31T04:14:29.428Z,5.55
2018-03-31T04:15:34.252Z,5.57
2018-03-31T04:16:38.319Z,5.57
2018-03-31T04:17:42.378Z,5.61
2018-03-31T04:18:47.224Z,5.62
2018-03-31T04:19:51.288Z,5.64
2018-03-31T04:20:55.345Z,5.72
2018-03-31T04:21:59.408Z,5.76
2018-03-31T04:23:04.245Z,5.75
2018-03-31T04:24:08.332Z,5.75
2018-03-31T04:25:13.165Z,5.78
2018-03-31T04:26:17.226Z,5.74
2018-03-31T04:27:21.302Z,5.72
2018-03-31T04:28:25.366Z,5.65
2018-03-31T04:29:29.461Z,5.66
2018-03-31T04:30:34.290Z,5.64
2018-03-31T04:31:38.345Z,5.63
2018-03-31T04:32:42.400Z,5.57
2018-03-31T04:33:46.465Z,5.51
2018-03-31T04:34:51.317Z,5.48
2018-03-31T04:35:55.384Z,5.41
2018-03-31T04:37:00.217Z,5.43
2018-03-31T04:38:05.045Z,5.43
2018-03-31T04:39:09.125Z,5.43
2018-03-31T04:40:13.200Z,5.41
2018-03-31T04:41:17.273Z,5.42
2018-03-31T04:42:21.336Z,5.47
2018-03-31T04:43:26.165Z,5.46
2018-03-31T04:44:30.994Z,5.46
2018-03-31T04:45:35.093Z,5.43
2018-03-31T04:46:39.934Z,5.47
2018-03-31T04:47:44.001Z,5.49
2018-03-31T04:48:48.832Z,5.47
2018-03-31T04:49:53.666Z,5.46
2018-03-31T04:50:57.748Z,5.43
2018-03-31T04:52:02.349Z,5.44
2018-03-31T04:53:06.431Z,5.42
2018-03-31T04:54:10.264Z,5.41
2018-03-31T04:55:15.076Z,5.38
2018-03-31T04:56:19.932Z,5.41
2018-03-31T04:57:23.998Z,5.43
2018-03-31T04:58:28.829Z,5.43
2018-03-31T04:59:33.665Z,5.46
2018-03-31T05:00:37.729Z,5.47
2018-03-31T05:01:41.871Z,5.45
2018-03-31T05:02:45.965Z,5.46
2018-03-31T05:03:50.573Z,5.47
2018-03-31T05:04:55.169Z,5.52
2018-03-31T05:05:59.229Z,5.56
2018-03-31T05:07:03.080Z,5.65
2018-03-31T05:08:07.908Z,5.62
2018-03-31T05:09:12.741Z,5.64
2018-03-31T05:10:16.801Z,5.65
2018-03-31T05:11:20.864Z,5.64
2018-03-31T05:12:24.718Z,5.65
2018-03-31T05:13:29.540Z,5.66
2018-03-31T05:14:34.379Z,5.65
2018-03-31T05:15:38.213Z,5.66
2018-03-31T05:16:42.286Z,5.67
2018-03-31T05:17:46.382Z,5.61
2018-03-31T05:18:50.220Z,5.56
2018-03-31T05:19:54.278Z,5.57
2018-03-31T05:20:58.352Z,5.57
2018-03-31T05:22:02.424Z,5.56
2018-03-31T05:23:06.517Z,5.57
2018-03-31T05:24:10.597Z,5.55
2018-03-31T05:25:14.672Z,5.52
2018-03-31T05:26:19.560Z,5.49
2018-03-31T05:27:23.383Z,5.48
2018-03-31T05:28:28.233Z,5.47
2018-03-31T05:29:32.294Z,5.50
2018-03-31T05:30:36.346Z,5.55
2018-03-31T05:31:40.181Z,5.57
2018-03-31T05:32:44.238Z,5.55
2018-03-31T05:33:48.374Z,5.56
2018-03-31T05:34:52.433Z,5.64
2018-03-31T05:35:56.496Z,5.69
2018-03-31T05:37:01.095Z,5.74
2018-03-31T05:38:05.153Z,5.79
2018-03-31T05:39:09.265Z,5.81
2018-03-31T05:40:13.101Z,5.82
2018-03-31T05:41:17.947Z,5.80
2018-03-31T05:42:22.778Z,5.78
2018-03-31T05:43:28.125Z,5.80
2018-03-31T05:44:32.285Z,5.83
2018-03-31T05:45:36.354Z,5.77
2018-03-31T05:46:40.416Z,5.76
2018-03-31T05:47:45.254Z,5.74
2018-03-31T05:48:49.316Z,5.75
2018-03-31T05:49:53.409Z,5.73
2018-03-31T05:50:57.480Z,5.71
2018-03-31T05:52:01.544Z,5.67
2018-03-31T05:53:05.618Z,5.70
2018-03-31T05:54:09.896Z,5.72
2018-03-31T05:55:13.980Z,5.76
2018-03-31T05:56:18.049Z,5.80
2018-03-31T05:57:22.888Z,5.82
2018-03-31T05:58:26.958Z,5.78
2018-03-31T05:59:31.027Z,5.84
2018-03-31T06:00:35.102Z,5.85
2018-03-31T06:01:39.167Z,5.90
2018-03-31T06:02:43.999Z,5.94
2018-03-31T06:03:48.844Z,5.95
2018-03-31T06:04:52.910Z,5.98
2018-03-31T06:05:56.998Z,5.98
2018-03-31T06:07:01.054Z,6.02
2018-03-31T06:08:05.113Z,6.03
2018-03-31T06:09:09.338Z,6.06
2018-03-31T06:10:14.158Z,6.06
2018-03-31T06:11:18.260Z,6.07
2018-03-31T06:12:23.095Z,6.10
2018-03-31T06:13:27.170Z,6.13
2018-03-31T06:14:31.992Z,6.18
2018-03-31T06:15:36.056Z,6.22
2018-03-31T06:16:40.141Z,6.26
2018-03-31T06:17:44.202Z,6.29
2018-03-31T06:18:49.052Z,6.33
2018-03-31T06:19:53.117Z,6.36
2018-03-31T06:20:57.942Z,6.35
2018-03-31T06:22:02.036Z,6.37
2018-03-31T06:23:06.107Z,6.38
2018-03-31T06:24:10.176Z,6.41
2018-03-31T06:25:14.244Z,6.43
2018-03-31T06:26:19.088Z,6.44
2018-03-31T06:27:23.173Z,6.43
2018-03-31T06:28:28.031Z,6.42
2018-03-31T06:29:32.194Z,6.41
2018-03-31T06:30:36.468Z,6.42
2018-03-31T06:31:40.707Z,6.44
2018-03-31T06:32:45.568Z,6.46
2018-03-31T06:33:49.642Z,6.44
2018-03-31T06:34:53.719Z,6.43
2018-03-31T06:35:57.776Z,6.41
2018-03-31T06:37:01.836Z,6.43
2018-03-31T06:38:06.698Z,6.42
2018-03-31T06:39:10.763Z,6.41
2018-03-31T06:40:15.585Z,6.39
2018-03-31T06:41:20.425Z,6.40
2018-03-31T06:42:24.488Z,6.41
2018-03-31T06:43:29.344Z,6.41
2018-03-31T06:44:33.404Z,6.37
2018-03-31T06:45:38.236Z,6.39
2018-03-31T06:46:43.132Z,6.39
2018-03-31T06:47:48.119Z,6.39
2018-03-31T06:48:52.208Z,6.42
2018-03-31T06:49:56.375Z,6.44
2018-03-31T06:51:00.436Z,6.43
2018-03-31T06:52:04.579Z,6.42
2018-03-31T06:53:09.429Z,6.43
2018-03-31T06:54:14.464Z,6.42
2018-03-31T06:55:18.522Z,6.39
2018-03-31T06:56:22.348Z,6.38
2018-03-31T06:57:27.248Z,6.37
2018-03-31T06:58:31.307Z,6.37
2018-03-31T06:59:35.400Z,6.36
2018-03-31T07:00:39.457Z,6.34
2018-03-31T07:01:43.543Z,6.34
2018-03-31T07:02:48.618Z,6.35
2018-03-31T07:03:52.739Z,6.34
2018-03-31T07:04:56.864Z,6.36
2018-03-31T07:06:00.940Z,6.36
2018-03-31T07:07:05.047Z,6.35
2018-03-31T07:08:09.115Z,6.32
2018-03-31T07:09:13.945Z,6.31
2018-03-31T07:10:18.045Z,6.30
2018-03-31T07:11:22.666Z,6.29
2018-03-31T07:12:26.730Z,6.28
2018-03-31T07:13:30.808Z,6.28
2018-03-31T07:14:34.948Z,6.26
2018-03-31T07:15:39.792Z,6.25
2018-03-31T07:16:43.865Z,6.24
2018-03-31T07:17:47.925Z,6.24
2018-03-31T07:18:52.106Z,6.23
2018-03-31T07:19:56.178Z,6.22
2018-03-31T07:21:01.040Z,6.22
2018-03-31T07:22:05.129Z,6.25
2018-03-31T07:23:09.193Z,6.25
2018-03-31T07:24:13.259Z,6.23
2018-03-31T07:25:17.330Z,6.23
2018-03-31T07:26:22.406Z,6.24
2018-03-31T07:27:27.288Z,6.26
2018-03-31T07:28:31.372Z,6.27
2018-03-31T07:29:36.199Z,6.26
2018-03-31T07:30:40.265Z,6.23
2018-03-31T07:31:44.364Z,6.21
2018-03-31T07:32:48.435Z,6.23
2018-03-31T07:33:52.501Z,6.22
2018-03-31T07:34:56.560Z,6.25
2018-03-31T07:36:00.619Z,6.26
2018-03-31T07:37:04.724Z,6.28
2018-03-31T07:38:08.781Z,6.28
2018-03-31T07:39:13.354Z,6.28
2018-03-31T07:40:17.446Z,6.28
2018-03-31T07:41:21.515Z,6.27
2018-03-31T07:42:26.561Z,6.25
2018-03-31T07:43:30.616Z,6.24
2018-03-31T07:44:34.704Z,6.25
2018-03-31T07:45:38.776Z,6.24
2018-03-31T07:46:42.824Z,6.24
2018-03-31T07:47:48.426Z,6.23
2018-03-31T07:48:52.515Z,6.22
2018-03-31T07:49:56.566Z,6.22
2018-03-31T07:51:00.634Z,6.22
2018-03-31T07:52:04.732Z,6.22
2018-03-31T07:53:09.052Z,6.22
2018-03-31T07:54:13.131Z,6.19
2018-03-31T07:55:17.203Z,6.18
2018-03-31T07:56:22.155Z,6.15
2018-03-31T07:57:26.316Z,6.12
2018-03-31T07:58:30.408Z,6.11
2018-03-31T07:59:34.476Z,6.09
2018-03-31T08:00:38.539Z,6.09
2018-03-31T08:01:43.410Z,6.10
2018-03-31T08:02:47.499Z,6.11
2018-03-31T08:03:51.621Z,6.13
2018-03-31T08:04:55.696Z,6.15
2018-03-31T08:05:59.772Z,6.13
2018-03-31T08:07:04.614Z,6.09
2018-03-31T08:08:08.919Z,6.06
2018-03-31T08:09:13.059Z,6.07
2018-03-31T08:10:17.154Z,6.09
2018-03-31T08:11:21.222Z,6.10
2018-03-31T08:12:25.331Z,6.11
2018-03-31T08:13:29.412Z,6.13
2018-03-31T08:14:34.277Z,6.15
2018-03-31T08:15:38.366Z,6.18
2018-03-31T08:16:42.432Z,6.19
2018-03-31T08:17:46.484Z,6.20
2018-03-31T08:18:50.541Z,6.19
2018-03-31T08:19:55.419Z,6.21
2018-03-31T08:20:59.529Z,6.26
2018-03-31T08:22:04.375Z,6.32
2018-03-31T08:23:09.217Z,6.35
2018-03-31T08:24:13.311Z,6.39
2018-03-31T08:25:18.176Z,6.43
2018-03-31T08:26:22.247Z,6.45
2018-03-31T08:27:26.298Z,6.47
2018-03-31T08:28:30.369Z,6.47
2018-03-31T08:29:34.429Z,6.45
2018-03-31T08:30:39.292Z,6.44
2018-03-31T08:31:43.344Z,6.45
2018-03-31T08:32:48.178Z,6.46
2018-03-31T08:33:52.453Z,6.45
2018-03-31T08:34:56.528Z,6.44
2018-03-31T08:36:00.637Z,6.48
2018-03-31T08:37:04.710Z,6.47
2018-03-31T08:38:08.793Z,6.48
2018-03-31T08:39:13.613Z,6.48
2018-03-31T08:40:18.436Z,6.48
2018-03-31T08:41:23.298Z,6.48
2018-03-31T08:42:27.356Z,6.48
2018-03-31T08:43:31.957Z,6.47
2018-03-31T08:44:36.854Z,6.47
2018-03-31T08:45:40.913Z,6.48
2018-03-31T08:46:44.929Z,6.52
2018-03-31T08:47:48.774Z,6.55
2018-03-31T08:48:52.832Z,6.54
2018-03-31T08:49:56.891Z,6.52
2018-03-31T08:51:01.728Z,6.49
2018-03-31T08:52:05.815Z,6.48
2018-03-31T08:53:10.647Z,6.47
2018-03-31T08:54:14.704Z,6.47
2018-03-31T08:55:18.765Z,6.48
2018-03-31T08:56:23.075Z,6.48
2018-03-31T08:57:27.172Z,6.44
2018-03-31T08:58:31.238Z,6.47
2018-03-31T08:59:36.082Z,6.51
2018-03-31T09:00:40.904Z,6.53
2018-03-31T09:01:44.963Z,6.55
2018-03-31T09:02:49.048Z,6.59
2018-03-31T09:03:53.160Z,6.61
2018-03-31T09:04:57.389Z,6.63
2018-03-31T09:06:01.462Z,6.66
2018-03-31T09:07:05.609Z,6.67
2018-03-31T09:08:10.465Z,6.66
2018-03-31T09:09:14.543Z,6.64
2018-03-31T09:10:19.577Z,6.64
2018-03-31T09:11:23.669Z,6.63
2018-03-31T09:12:27.745Z,6.66
2018-03-31T09:13:31.824Z,6.70
2018-03-31T09:14:35.881Z,6.71
2018-03-31T09:15:39.933Z,6.72
2018-03-31T09:16:44.058Z,6.74
2018-03-31T09:17:48.297Z,6.76
2018-03-31T09:18:52.380Z,6.75
2018-03-31T09:19:57.221Z,6.72
2018-03-31T09:21:01.483Z,6.70
2018-03-31T09:22:05.325Z,6.67
2018-03-31T09:23:09.549Z,6.63
2018-03-31T09:24:13.423Z,6.62
2018-03-31T09:25:17.486Z,6.64
2018-03-31T09:26:21.622Z,6.68
2018-03-31T09:27:25.693Z,6.71
2018-03-31T09:28:30.541Z,6.74
2018-03-31T09:29:34.624Z,6.73
2018-03-31T09:30:39.446Z,6.78
2018-03-31T09:31:44.280Z,6.84
2018-03-31T09:32:48.336Z,6.86
2018-03-31T09:33:52.465Z,6.87
2018-03-31T09:34:56.656Z,6.87
2018-03-31T09:36:01.500Z,6.88
2018-03-31T09:37:06.326Z,6.88
2018-03-31T09:38:11.168Z,6.88
2018-03-31T09:39:15.237Z,6.88
2018-03-31T09:40:20.151Z,6.87
2018-03-31T09:41:24.201Z,6.84
2018-03-31T09:42:28.361Z,6.85
2018-03-31T09:43:32.425Z,6.87
2018-03-31T09:44:36.508Z,6.88
2018-03-31T09:45:40.622Z,6.89
2018-03-31T09:46:44.707Z,6.91
2018-03-31T09:47:49.797Z,6.93
2018-03-31T09:48:54.637Z,6.92
2018-03-31T09:49:59.239Z,6.93
2018-03-31T09:51:03.353Z,6.97
2018-03-31T09:52:07.428Z,7.01
2018-03-31T09:53:11.499Z,7.03
2018-03-31T09:54:15.565Z,7.06
2018-03-31T09:55:19.637Z,7.11
2018-03-31T09:56:24.471Z,7.15
2018-03-31T09:57:28.553Z,7.19
2018-03-31T09:58:32.639Z,7.21
2018-03-31T09:59:36.696Z,7.24
2018-03-31T10:00:40.757Z,7.26
2018-03-31T10:01:44.965Z,7.29
2018-03-31T10:02:49.024Z,7.30
2018-03-31T10:03:53.101Z,7.30
2018-03-31T10:04:57.545Z,7.30
2018-03-31T10:06:01.628Z,7.31
2018-03-31T10:07:05.721Z,7.33
2018-03-31T10:08:09.802Z,7.34
2018-03-31T10:09:14.620Z,7.33
2018-03-31T10:10:19.446Z,7.32
2018-03-31T10:11:24.283Z,7.35
2018-03-31T10:12:28.407Z,7.36
2018-03-31T10:13:33.389Z,7.42
2018-03-31T10:14:38.238Z,7.46
2018-03-31T10:15:42.305Z,7.51
2018-03-31T10:16:47.120Z,7.52
2018-03-31T10:17:51.990Z,7.47
2018-03-31T10:18:56.047Z,7.43
2018-03-31T10:20:00.890Z,7.46
2018-03-31T10:21:04.973Z,7.49
2018-03-31T10:22:09.790Z,7.51
2018-03-31T10:23:14.638Z,7.47
2018-03-31T10:24:18.933Z,7.51
2018-03-31T10:25:23.001Z,7.52
2018-03-31T10:26:27.063Z,7.52
2018-03-31T10:27:31.113Z,7.53
2018-03-31T10:28:36.011Z,7.54
2018-03-31T10:29:40.063Z,7.56
2018-03-31T10:30:44.117Z,7.54
2018-03-31T10:31:48.180Z,7.55
2018-03-31T10:32:52.240Z,7.56
2018-03-31T10:33:56.320Z,7.56
2018-03-31T10:35:01.040Z,7.58
2018-03-31T10:36:05.120Z,7.58
2018-03-31T10:37:09.187Z,7.59
2018-03-31T10:38:13.253Z,7.58
2018-03-31T10:39:18.845Z,7.56
2018-03-31T10:40:23.003Z,7.51
2018-03-31T10:41:27.217Z,7.51
2018-03-31T10:42:32.249Z,7.52
2018-03-31T10:43:36.320Z,7.55
2018-03-31T10:44:40.407Z,7.56
2018-03-31T10:45:44.461Z,7.61
2018-03-31T10:46:49.293Z,7.63
2018-03-31T10:47:53.343Z,7.65
2018-03-31T10:48:57.397Z,7.60
2018-03-31T10:50:01.485Z,7.64
2018-03-31T10:51:06.312Z,7.73
2018-03-31T10:52:10.466Z,7.78
2018-03-31T10:53:14.614Z,7.78
2018-03-31T10:54:19.436Z,7.77
2018-03-31T10:55:23.524Z,7.78
2018-03-31T10:56:28.377Z,7.81
2018-03-31T10:57:32.462Z,7.85
2018-03-31T10:58:36.567Z,7.91
2018-03-31T10:59:41.393Z,7.98
2018-03-31T11:00:45.508Z,8.03
2018-03-31T11:01:49.563Z,8.08
2018-03-31T11:02:54.404Z,8.11
2018-03-31T11:03:59.304Z,8.14
2018-03-31T11:05:04.964Z,8.15
2018-03-31T11:06:09.227Z,8.17
2018-03-31T11:07:13.312Z,8.19
2018-03-31T11:08:19.127Z,8.19
2018-03-31T11:09:23.415Z,8.19
2018-03-31T11:10:28.240Z,8.19
2018-03-31T11:11:33.283Z,8.17
2018-03-31T11:12:37.569Z,8.18
2018-03-31T11:13:43.243Z,8.23
2018-03-31T11:14:47.376Z,8.28
2018-03-31T11:15:51.440Z,8.31
2018-03-31T11:16:56.613Z,8.28
2018-03-31T11:18:00.680Z,8.28
2018-03-31T11:19:04.798Z,8.29
2018-03-31T11:20:09.085Z,8.25
2018-03-31T11:21:13.194Z,8.29
2018-03-31T11:22:17.112Z,8.32
2018-03-31T11:23:21.195Z,8.30
2018-03-31T11:24:25.366Z,8.34
2018-03-31T11:25:29.459Z,8.36
2018-03-31T11:26:34.453Z,8.36
2018-03-31T11:27:39.726Z,8.34
2018-03-31T11:28:44.674Z,8.27
2018-03-31T11:29:48.820Z,8.25
2018-03-31T11:30:52.890Z,8.23
2018-03-31T11:31:57.162Z,8.17
2018-03-31T11:33:01.423Z,8.22
2018-03-31T11:34:05.584Z,8.19
2018-03-31T11:35:09.657Z,8.22
2018-03-31T11:36:14.481Z,8.19
2018-03-31T11:37:19.583Z,8.17
2018-03-31T11:38:23.633Z,8.26
2018-03-31T11:39:27.899Z,8.35
2018-03-31T11:40:32.815Z,8.38
2018-03-31T11:41:37.672Z,8.43
2018-03-31T11:42:41.505Z,8.54
2018-03-31T11:43:45.335Z,8.67
2018-03-31T11:44:49.410Z,8.69
2018-03-31T11:45:53.469Z,8.62
2018-03-31T11:46:57.534Z,8.68
2018-03-31T11:48:01.615Z,8.71
2018-03-31T11:49:05.676Z,8.70
2018-03-31T11:50:09.861Z,8.69
2018-03-31T11:51:14.705Z,8.67
2018-03-31T11:52:18.868Z,8.66
2018-03-31T11:53:22.940Z,8.65
2018-03-31T11:54:27.046Z,8.66
2018-03-31T11:55:31.136Z,8.63
2018-03-31T11:56:35.208Z,8.65
2018-03-31T11:57:40.029Z,8.64
2018-03-31T11:58:44.870Z,8.61
2018-03-31T11:59:48.944Z,8.60
2018-03-31T12:00:53.574Z,8.61
2018-03-31T12:01:58.583Z,8.68
2018-03-31T12:03:03.410Z,8.73
2018-03-31T12:04:08.280Z,8.72
2018-03-31T12:05:12.343Z,8.68
2018-03-31T12:06:16.428Z,8.57
2018-03-31T12:07:21.266Z,8.54
2018-03-31T12:08:25.553Z,8.53
2018-03-31T12:09:30.410Z,8.50
2018-03-31T12:10:34.468Z,8.38
2018-03-31T12:11:39.339Z,8.38
2018-03-31T12:12:43.406Z,8.33
2018-03-31T12:13:47.270Z,8.25
2018-03-31T12:14:51.373Z,8.25
2018-03-31T12:15:55.441Z,8.32
2018-03-31T12:16:59.513Z,8.31
2018-03-31T12:18:04.341Z,8.34
2018-03-31T12:19:08.400Z,8.32
2018-03-31T12:20:13.363Z,8.26
2018-03-31T12:21:17.421Z,8.24
2018-03-31T12:22:21.485Z,8.25
2018-03-31T12:23:25.537Z,8.29
2018-03-31T12:24:29.600Z,8.27
2018-03-31T12:25:33.689Z,8.33
2018-03-31T12:26:37.736Z,8.38
2018-03-31T12:27:41.797Z,8.41
2018-03-31T12:28:45.884Z,8.46
2018-03-31T12:29:49.944Z,8.49
2018-03-31T12:30:54.041Z,8.49
2018-03-31T12:31:58.097Z,8.45
2018-03-31T12:33:02.166Z,8.40
2018-03-31T12:34:06.985Z,8.34
2018-03-31T12:35:11.813Z,8.30
2018-03-31T12:36:16.695Z,8.27
2018-03-31T12:37:21.594Z,8.22
2018-03-31T12:38:25.669Z,8.19
2018-03-31T12:39:29.708Z,8.06
2018-03-31T12:40:34.532Z,8.03
2018-03-31T12:41:39.380Z,8.01
2018-03-31T12:42:43.437Z,8.05
2018-03-31T12:43:47.502Z,8.10
2018-03-31T12:44:51.581Z,8.11
2018-03-31T12:45:55.663Z,8.10
2018-03-31T12:47:00.520Z,8.10
2018-03-31T12:48:04.588Z,8.19
2018-03-31T12:49:08.671Z,8.27
2018-03-31T12:50:13.537Z,8.37
2018-03-31T12:51:17.624Z,8.47
2018-03-31T12:52:21.726Z,8.59
2018-03-31T12:53:25.800Z,8.72
2018-03-31T12:54:30.637Z,8.82
2018-03-31T12:55:34.718Z,8.90
2018-03-31T12:56:38.835Z,8.95
2018-03-31T12:57:42.920Z,8.99
2018-03-31T12:58:47.027Z,9.03
2018-03-31T12:59:51.082Z,9.03
2018-03-31T13:00:54.921Z,8.99
2018-03-31T13:01:58.976Z,8.99
2018-03-31T13:03:03.054Z,8.98
2018-03-31T13:04:07.872Z,8.97
2018-03-31T13:05:12.692Z,9.00
2018-03-31T13:06:16.770Z,9.00
2018-03-31T13:07:20.836Z,9.00
2018-03-31T13:08:24.938Z,9.04
2018-03-31T13:09:29.017Z,9.08
2018-03-31T13:10:33.072Z,9.11
2018-03-31T13:11:37.142Z,9.11
2018-03-31T13:12:41.258Z,9.12
2018-03-31T13:13:45.366Z,9.21
2018-03-31T13:14:49.293Z,9.25
2018-03-31T13:15:53.464Z,9.27
2018-03-31T13:16:58.433Z,9.37
2018-03-31T13:18:02.651Z,9.38
2018-03-31T13:19:07.032Z,9.39
2018-03-31T13:20:11.175Z,9.44
2018-03-31T13:21:15.281Z,9.53
2018-03-31T13:22:19.343Z,9.47
2018-03-31T13:23:24.163Z,9.53
2018-03-31T13:24:29.140Z,9.63
2018-03-31T13:25:33.459Z,9.66
2018-03-31T13:26:37.748Z,9.64
2018-03-31T13:27:42.077Z,9.68
2018-03-31T13:28:47.161Z,9.67
2018-03-31T13:29:51.440Z,9.67
2018-03-31T13:30:55.776Z,9.67
2018-03-31T13:32:00.598Z,9.68
2018-03-31T13:33:05.044Z,9.69
2018-03-31T13:34:09.287Z,9.69
2018-03-31T13:35:13.579Z,9.64
2018-03-31T13:36:17.764Z,9.67
2018-03-31T13:37:22.046Z,9.68
2018-03-31T13:38:26.274Z,9.66
2018-03-31T13:39:30.552Z,9.70
2018-03-31T13:40:34.805Z,9.63
2018-03-31T13:41:38.992Z,9.65
2018-03-31T13:42:43.229Z,9.67
2018-03-31T13:43:48.193Z,9.72
2018-03-31T13:44:52.453Z,9.84
2018-03-31T13:45:57.320Z,9.91
2018-03-31T13:47:01.373Z,9.93
2018-03-31T13:48:06.109Z,9.92
2018-03-31T13:49:10.407Z,9.87
2018-03-31T13:50:15.415Z,9.86
2018-03-31T13:51:19.496Z,9.90
2018-03-31T13:52:23.645Z,9.95
2018-03-31T13:53:28.473Z,9.94
2018-03-31T13:54:32.538Z,9.90
2018-03-31T13:55:36.754Z,9.95
2018-03-31T13:56:41.850Z,10.00
2018-03-31T13:57:46.055Z,9.92
2018-03-31T13:58:50.195Z,9.88
2018-03-31T13:59:55.166Z,9.91
2018-03-31T14:00:59.252Z,9.88
2018-03-31T14:02:03.551Z,9.88
2018-03-31T14:03:07.841Z,9.83
2018-03-31T14:04:11.996Z,9.73
2018-03-31T14:05:16.316Z,9.66
2018-03-31T14:06:20.416Z,9.55
2018-03-31T14:07:24.513Z,9.47
2018-03-31T14:08:28.588Z,9.39
2018-03-31T14:09:32.674Z,9.35
2018-03-31T14:10:36.774Z,9.37
2018-03-31T14:11:41.371Z,9.35
2018-03-31T14:12:46.218Z,9.31
2018-03-31T14:13:50.331Z,9.24
2018-03-31T14:14:54.439Z,9.19
2018-03-31T14:15:58.511Z,9.14
2018-03-31T14:17:03.414Z,9.03